createdAt,value
2018-02-04T00:00:00.192Z,69.79
2018-02-04T00:00:23.794Z,69.69
2018-02-04T00:00:47.253Z,69.67
2018-02-04T00:01:10.991Z,69.64
2018-02-04T00:01:34.762Z,69.53
2018-02-04T00:01:58.799Z,69.49
2018-02-04T00:02:22.844Z,69.50
2018-02-04T00:02:46.618Z,69.50
2018-02-04T00:03:09.992Z,69.45
2018-02-04T00:03:33.920Z,69.37
2018-02-04T00:03:57.696Z,69.30
2018-02-04T00:04:21.147Z,69.31
2018-02-04T00:04:44.912Z,69.34
2018-02-04T00:05:08.710Z,69.40
2018-02-04T00:05:32.514Z,69.38
2018-02-04T00:05:56.576Z,69.33
2018-02-04T00:06:20.442Z,69.34
2018-02-04T00:06:44.496Z,69.26
2018-02-04T00:07:08.265Z,69.20
2018-02-04T00:07:31.713Z,69.13
2018-02-04T00:07:55.522Z,69.10
2018-02-04T00:08:19.274Z,69.08
2018-02-04T00:08:43.296Z,69.03
2018-02-04T00:09:07.367Z,69.00
2018-02-04T00:09:31.102Z,69.00
2018-02-04T00:09:54.586Z,68.99
2018-02-04T00:10:18.333Z,68.89
2018-02-04T00:10:42.109Z,68.77
2018-02-04T00:11:06.143Z,68.72
2018-02-04T00:11:29.896Z,68.74
2018-02-04T00:11:53.409Z,68.65
2018-02-04T00:12:17.158Z,68.60
2018-02-04T00:12:40.949Z,68.55
2018-02-04T00:13:05.056Z,68.49
2018-02-04T00:13:28.828Z,68.47
2018-02-04T00:13:52.861Z,68.48
2018-02-04T00:14:16.958Z,68.46
2018-02-04T00:14:40.715Z,68.46
2018-02-04T00:15:04.747Z,68.47
2018-02-04T00:15:28.963Z,68.46
2018-02-04T00:15:52.728Z,68.44
2018-02-04T00:16:16.171Z,68.39
2018-02-04T00:16:39.904Z,68.39
2018-02-04T00:17:03.646Z,68.39
2018-02-04T00:17:27.478Z,68.38
2018-02-04T00:17:50.817Z,68.42
2018-02-04T00:18:14.587Z,68.44
2018-02-04T00:18:38.028Z,68.45
2018-02-04T00:19:01.829Z,68.43
2018-02-04T00:19:25.645Z,68.43
2018-02-04T00:19:49.391Z,68.41
2018-02-04T00:20:13.145Z,68.44
2018-02-04T00:20:36.606Z,68.46
2018-02-04T00:21:00.374Z,68.48
2018-02-04T00:21:24.127Z,68.45
2018-02-04T00:21:48.186Z,68.40
2018-02-04T00:22:11.528Z,68.34
2018-02-04T00:22:39.404Z,68.32
2018-02-04T00:23:03.169Z,68.29
2018-02-04T00:23:26.990Z,68.22
2018-02-04T00:23:51.010Z,68.17
2018-02-04T00:24:15.027Z,68.11
2018-02-04T00:24:38.800Z,68.10
2018-02-04T00:25:02.662Z,68.13
2018-02-04T00:25:26.404Z,68.15
2018-02-04T00:25:50.167Z,68.22
2018-02-04T00:26:13.927Z,68.28
2018-02-04T00:26:37.704Z,68.33
2018-02-04T00:27:01.725Z,68.32
2018-02-04T00:27:25.868Z,68.32
2018-02-04T00:27:49.631Z,68.31
2018-02-04T00:28:13.720Z,68.31
2018-02-04T00:28:37.528Z,68.30
2018-02-04T00:29:01.629Z,68.35
2018-02-04T00:29:25.379Z,68.41
2018-02-04T00:29:48.836Z,68.44
2018-02-04T00:30:12.587Z,68.45
2018-02-04T00:30:35.983Z,68.50
2018-02-04T00:30:59.737Z,68.52
2018-02-04T00:31:23.460Z,68.49
2018-02-04T00:31:47.243Z,68.52
2018-02-04T00:32:11.115Z,68.58
2018-02-04T00:32:34.850Z,68.67
2018-02-04T00:32:58.625Z,68.75
2018-02-04T00:33:22.464Z,68.79
2018-02-04T00:33:46.226Z,68.87
2018-02-04T00:34:10.002Z,68.98
2018-02-04T00:34:33.451Z,68.96
2018-02-04T00:34:57.193Z,68.95
2018-02-04T00:35:20.944Z,69.02
2018-02-04T00:35:44.467Z,69.03
2018-02-04T00:36:08.255Z,69.06
2018-02-04T00:36:32.181Z,69.07
2018-02-04T00:36:55.934Z,69.17
2018-02-04T00:37:20.031Z,69.22
2018-02-04T00:37:43.766Z,69.30
2018-02-04T00:38:07.039Z,69.42
2018-02-04T00:38:30.780Z,69.43
2018-02-04T00:38:54.910Z,69.44
2018-02-04T00:39:18.664Z,69.51
2018-02-04T00:39:42.735Z,69.54
2018-02-04T00:40:06.740Z,69.54
2018-02-04T00:40:30.532Z,69.52
2018-02-04T00:40:54.036Z,69.57
2018-02-04T00:41:17.823Z,69.65
2018-02-04T00:41:41.573Z,69.76
2018-02-04T00:42:05.631Z,69.90
2018-02-04T00:42:29.399Z,70.02
2018-02-04T00:42:53.314Z,70.11
2018-02-04T00:43:16.875Z,70.23
2018-02-04T00:43:40.606Z,70.32
2018-02-04T00:44:04.411Z,70.42
2018-02-04T00:44:28.164Z,70.54
2018-02-04T00:44:51.653Z,70.64
2018-02-04T00:45:15.447Z,70.80
2018-02-04T00:45:38.535Z,70.94
2018-02-04T00:46:02.310Z,71.03
2018-02-04T00:46:26.124Z,71.04
2018-02-04T00:46:50.174Z,71.06
2018-02-04T00:47:13.992Z,71.09
2018-02-04T00:47:38.003Z,71.18
2018-02-04T00:48:02.040Z,71.28
2018-02-04T00:48:25.496Z,71.27
2018-02-04T00:48:49.260Z,71.26
2018-02-04T00:49:13.071Z,71.27
2018-02-04T00:49:36.807Z,71.25
2018-02-04T00:50:00.831Z,71.25
2018-02-04T00:50:24.866Z,71.31
2018-02-04T00:50:48.600Z,71.35
2018-02-04T00:51:12.323Z,71.37
2018-02-04T00:51:36.125Z,71.31
2018-02-04T00:51:59.871Z,71.21
2018-02-04T00:52:23.620Z,71.17
2018-02-04T00:52:47.660Z,71.15
2018-02-04T00:53:11.495Z,71.17
2018-02-04T00:53:35.567Z,71.14
2018-02-04T00:53:59.032Z,71.10
2018-02-04T00:54:22.793Z,71.04
2018-02-04T00:54:46.570Z,70.98
2018-02-04T00:55:10.355Z,70.92
2018-02-04T00:55:34.399Z,70.76
2018-02-04T00:55:58.217Z,70.65
2018-02-04T00:56:21.699Z,70.57
2018-02-04T00:56:45.443Z,70.51
2018-02-04T00:57:09.199Z,70.44
2018-02-04T00:57:33.205Z,70.32
2018-02-04T00:57:57.228Z,70.19
2018-02-04T00:58:20.793Z,70.14
2018-02-04T00:58:44.519Z,70.12
2018-02-04T00:59:08.077Z,70.07
2018-02-04T00:59:31.536Z,69.97
2018-02-04T00:59:55.264Z,69.77
2018-02-04T01:00:19.036Z,69.63
2018-02-04T01:00:42.816Z,69.50
2018-02-04T01:01:06.832Z,69.38
2018-02-04T01:01:30.955Z,69.44
2018-02-04T01:01:54.707Z,69.41
2018-02-04T01:02:18.744Z,69.34
2018-02-04T01:02:42.777Z,69.28
2018-02-04T01:03:06.507Z,69.29
2018-02-04T01:03:30.241Z,69.29
2018-02-04T01:03:54.056Z,69.26
2018-02-04T01:04:17.793Z,69.18
2018-02-04T01:04:41.601Z,69.00
2018-02-04T01:05:05.188Z,68.83
2018-02-04T01:05:28.955Z,68.60
2018-02-04T01:05:52.687Z,68.47
2018-02-04T01:06:16.424Z,68.38
2018-02-04T01:06:40.483Z,68.32
2018-02-04T01:07:04.235Z,68.22
2018-02-04T01:07:27.747Z,68.18
2018-02-04T01:07:51.489Z,68.14
2018-02-04T01:08:15.228Z,68.13
2018-02-04T01:08:39.233Z,67.97
2018-02-04T01:09:03.075Z,67.90
2018-02-04T01:09:26.561Z,67.87
2018-02-04T01:09:50.346Z,67.80
2018-02-04T01:10:14.137Z,67.68
2018-02-04T01:10:37.404Z,67.61
2018-02-04T01:11:00.966Z,67.58
2018-02-04T01:11:25.042Z,67.59
2018-02-04T01:11:48.871Z,67.58
2018-02-04T01:12:12.323Z,67.51
2018-02-04T01:12:36.126Z,67.37
2018-02-04T01:12:59.172Z,67.23
2018-02-04T01:13:22.912Z,67.16
2018-02-04T01:13:46.688Z,67.15
2018-02-04T01:14:09.504Z,67.12
2018-02-04T01:14:33.232Z,67.08
2018-02-04T01:14:57.013Z,67.01
2018-02-04T01:15:20.772Z,66.95
2018-02-04T01:15:44.634Z,66.90
2018-02-04T01:16:08.291Z,66.89
2018-02-04T01:16:32.044Z,66.89
2018-02-04T01:16:55.767Z,66.88
2018-02-04T01:17:19.507Z,66.88
2018-02-04T01:17:43.559Z,66.91
2018-02-04T01:18:07.377Z,66.94
2018-02-04T01:18:31.380Z,66.92
2018-02-04T01:18:55.506Z,66.91
2018-02-04T01:19:19.313Z,66.90
2018-02-04T01:19:43.331Z,66.86
2018-02-04T01:20:06.154Z,66.82
2018-02-04T01:20:29.605Z,66.80
2018-02-04T01:20:53.341Z,66.76
2018-02-04T01:21:17.171Z,66.71
2018-02-04T01:21:41.193Z,66.60
2018-02-04T01:22:04.948Z,66.51
2018-02-04T01:22:28.971Z,66.47
2018-02-04T01:22:53.018Z,66.47
2018-02-04T01:23:16.682Z,66.50
2018-02-04T01:23:40.486Z,66.53
2018-02-04T01:24:04.224Z,66.52
2018-02-04T01:24:28.045Z,66.48
2018-02-04T01:24:51.802Z,66.48
2018-02-04T01:25:15.847Z,66.42
2018-02-04T01:25:39.855Z,66.39
2018-02-04T01:26:03.683Z,66.34
2018-02-04T01:26:27.704Z,66.29
2018-02-04T01:26:51.727Z,66.23
2018-02-04T01:27:15.472Z,66.21
2018-02-04T01:27:39.259Z,66.17
2018-02-04T01:28:02.799Z,66.12
2018-02-04T01:28:26.537Z,66.07
2018-02-04T01:28:50.619Z,66.02
2018-02-04T01:29:14.455Z,65.94
2018-02-04T01:29:38.524Z,65.92
2018-02-04T01:30:02.339Z,65.91
2018-02-04T01:30:26.440Z,65.87
2018-02-04T01:30:50.237Z,65.83
2018-02-04T01:31:14.322Z,65.85
2018-02-04T01:31:38.099Z,65.90
2018-02-04T01:32:01.537Z,65.90
2018-02-04T01:32:25.323Z,65.87
2018-02-04T01:32:49.071Z,65.87
2018-02-04T01:33:13.112Z,65.93
2018-02-04T01:33:37.135Z,65.93
2018-02-04T01:34:00.878Z,65.93
2018-02-04T01:34:24.319Z,65.87
2018-02-04T01:34:48.051Z,65.84
2018-02-04T01:35:11.832Z,65.82
2018-02-04T01:35:35.902Z,65.81
2018-02-04T02:19:48.096Z,65.12
2018-02-04T02:20:11.908Z,65.15
2018-02-04T02:20:35.671Z,65.18
2018-02-04T02:20:59.473Z,65.22
2018-02-04T02:21:23.492Z,65.27
2018-02-04T02:21:47.523Z,65.30
2018-02-04T02:22:11.085Z,65.34
2018-02-04T02:22:34.191Z,65.39
2018-02-04T02:22:57.931Z,65.44
2018-02-04T02:23:21.716Z,65.45
2018-02-04T02:23:45.449Z,65.48
2018-02-04T02:24:09.185Z,65.51
2018-02-04T02:24:32.747Z,65.57
2018-02-04T02:24:56.520Z,65.61
2018-02-04T02:25:20.295Z,65.63
2018-02-04T02:25:44.113Z,65.60
2018-02-04T02:26:08.137Z,65.58
2018-02-04T02:26:31.880Z,65.60
2018-02-04T02:26:55.331Z,65.65
2018-02-04T02:27:19.141Z,65.70
2018-02-04T02:27:42.897Z,65.67
2018-02-04T02:28:06.955Z,65.68
2018-02-04T02:28:30.711Z,65.62
2018-02-04T02:28:54.170Z,65.62
2018-02-04T02:29:17.899Z,65.62
2018-02-04T02:29:41.635Z,65.59
2018-02-04T02:30:05.712Z,65.53
2018-02-04T02:30:29.469Z,65.51
2018-02-04T02:30:53.190Z,65.50
2018-02-04T02:31:16.985Z,65.49
2018-02-04T02:31:40.765Z,65.49
2018-02-04T02:32:04.561Z,65.46
2018-02-04T02:32:28.315Z,65.40
2018-02-04T02:32:51.810Z,65.34
2018-02-04T02:33:15.539Z,65.24
2018-02-04T02:33:39.289Z,65.15
2018-02-04T02:34:03.307Z,65.10
2018-02-04T02:34:26.756Z,65.06
2018-02-04T02:34:50.493Z,65.00
2018-02-04T02:35:14.284Z,65.02
2018-02-04T02:35:38.070Z,65.01
2018-02-04T02:36:01.421Z,64.95
2018-02-04T02:36:25.187Z,64.87
2018-02-04T02:36:48.955Z,64.84
2018-02-04T02:37:13.002Z,64.74
2018-02-04T02:37:36.743Z,64.66
2018-02-04T02:38:00.462Z,64.63
2018-02-04T02:38:24.210Z,64.57
2018-02-04T02:38:47.980Z,64.50
2018-02-04T02:39:11.782Z,64.46
2018-02-04T02:39:35.797Z,64.42
2018-02-04T02:39:59.539Z,64.36
2018-02-04T02:40:22.995Z,64.37
2018-02-04T02:40:46.804Z,64.34
2018-02-04T02:41:10.589Z,64.33
2018-02-04T02:41:34.618Z,64.33
2018-02-04T02:41:57.704Z,64.32
2018-02-04T02:42:21.449Z,64.34
2018-02-04T02:42:45.503Z,64.41
2018-02-04T02:43:09.346Z,64.50
2018-02-04T02:43:33.376Z,64.55
2018-02-04T02:43:56.827Z,64.57
2018-02-04T02:44:20.557Z,64.59
2018-02-04T02:44:44.279Z,64.62
2018-02-04T02:45:08.086Z,64.64
2018-02-04T02:45:32.141Z,64.64
2018-02-04T02:45:56.169Z,64.64
2018-02-04T02:46:19.611Z,64.61
2018-02-04T02:46:43.371Z,64.58
2018-02-04T02:47:06.479Z,64.53
2018-02-04T02:47:30.259Z,64.50
2018-02-04T02:47:54.067Z,64.49
2018-02-04T02:48:17.799Z,64.48
2018-02-04T02:48:41.257Z,64.44
2018-02-04T02:49:04.997Z,64.42
2018-02-04T02:49:28.742Z,64.40
2018-02-04T02:49:52.798Z,64.40
2018-02-04T02:50:16.643Z,64.35
2018-02-04T02:50:40.737Z,64.31
2018-02-04T02:51:04.511Z,64.28
2018-02-04T02:51:27.989Z,64.26
2018-02-04T02:51:51.756Z,64.18
2018-02-04T02:52:15.313Z,64.18
2018-02-04T02:52:38.396Z,64.19
2018-02-04T02:53:02.278Z,64.13
2018-02-04T02:53:26.012Z,63.97
2018-02-04T02:53:49.753Z,63.83
2018-02-04T02:54:13.569Z,63.74
2018-02-04T02:54:37.339Z,63.74
2018-02-04T02:55:00.820Z,63.77
2018-02-04T02:55:24.584Z,63.81
2018-02-04T02:55:48.351Z,63.84
2018-02-04T02:56:11.974Z,63.90
2018-02-04T02:56:36.667Z,63.94
2018-02-04T02:57:00.469Z,63.95
2018-02-04T02:57:24.221Z,63.90
2018-02-04T02:57:47.993Z,63.83
2018-02-04T02:58:12.028Z,63.78
2018-02-04T02:58:35.794Z,63.76
2018-02-04T02:58:59.244Z,63.77
2018-02-04T02:59:22.977Z,63.73
2018-02-04T02:59:46.719Z,63.70
2018-02-04T03:00:10.751Z,63.67
2018-02-04T03:00:34.783Z,63.64
2018-02-04T03:00:58.608Z,63.64
2018-02-04T03:01:22.067Z,63.64
2018-02-04T03:01:45.913Z,63.65
2018-02-04T03:02:08.971Z,63.67
2018-02-04T03:02:32.707Z,63.60
2018-02-04T03:02:56.468Z,63.48
2018-02-04T03:03:20.504Z,63.38
2018-02-04T03:03:44.533Z,63.31
2018-02-04T03:04:08.324Z,63.22
2018-02-04T03:04:32.356Z,63.12
2018-02-04T03:04:56.439Z,63.08
2018-02-04T03:05:20.199Z,63.10
2018-02-04T03:05:43.685Z,63.08
2018-02-04T03:06:07.537Z,63.05
2018-02-04T03:06:31.279Z,63.03
2018-02-04T03:06:55.053Z,63.02
2018-02-04T03:07:19.123Z,63.05
2018-02-04T03:07:43.163Z,63.06
2018-02-04T03:08:06.903Z,63.02
2018-02-04T03:08:30.416Z,62.98
2018-02-04T03:08:54.219Z,62.98
2018-02-04T03:09:17.771Z,62.96
2018-02-04T03:09:41.252Z,62.86
2018-02-04T03:10:04.323Z,62.79
2018-02-04T03:10:28.111Z,62.75
2018-02-04T03:10:51.889Z,62.66
2018-02-04T03:11:15.665Z,62.56
2018-02-04T03:11:39.679Z,62.51
2018-02-04T03:12:03.795Z,62.51
2018-02-04T03:12:27.546Z,62.53
2018-02-04T03:12:51.627Z,62.53
2018-02-04T03:13:15.424Z,62.52
2018-02-04T03:13:38.880Z,62.48
2018-02-04T03:14:02.624Z,62.46
2018-02-04T03:14:26.375Z,62.47
2018-02-04T03:14:50.396Z,62.51
2018-02-04T03:15:14.441Z,62.56
2018-02-04T03:15:38.222Z,62.56
2018-02-04T03:16:02.242Z,62.57
2018-02-04T03:16:26.357Z,62.58
2018-02-04T03:16:50.103Z,62.60
2018-02-04T03:17:13.552Z,62.66
2018-02-04T03:17:37.342Z,62.69
2018-02-04T03:18:01.134Z,62.69
2018-02-04T03:18:24.950Z,62.70
2018-02-04T03:18:48.409Z,62.69
2018-02-04T03:19:12.180Z,62.66
2018-02-04T03:19:35.927Z,62.66
2018-02-04T03:20:00.164Z,62.69
2018-02-04T03:20:23.901Z,62.71
2018-02-04T03:20:47.640Z,62.73
2018-02-04T03:21:11.139Z,62.74
2018-02-04T03:21:34.924Z,62.73
2018-02-04T03:21:58.672Z,62.75
2018-02-04T03:22:22.723Z,62.72
2018-02-04T03:22:46.465Z,62.70
2018-02-04T03:23:10.009Z,62.61
2018-02-04T03:23:33.766Z,62.56
2018-02-04T03:23:57.573Z,62.50
2018-02-04T03:24:21.315Z,62.40
2018-02-04T03:24:44.763Z,62.37
2018-02-04T03:25:08.321Z,62.33
2018-02-04T03:25:32.399Z,62.30
2018-02-04T03:25:56.136Z,62.29
2018-02-04T03:26:19.865Z,62.31
2018-02-04T03:26:43.627Z,62.30
2018-02-04T03:27:07.411Z,62.30
2018-02-04T03:27:31.228Z,62.34
2018-02-04T03:27:55.016Z,62.37
2018-02-04T03:28:19.372Z,62.40
2018-02-04T03:28:43.164Z,62.44
2018-02-04T03:29:06.983Z,62.45
2018-02-04T03:29:31.007Z,62.41
2018-02-04T03:29:54.647Z,62.41
2018-02-04T03:30:18.403Z,62.40
2018-02-04T03:30:42.148Z,62.42
2018-02-04T03:31:05.890Z,62.43
2018-02-04T03:31:29.637Z,62.45
2018-02-04T03:31:53.118Z,62.50
2018-02-04T03:32:17.026Z,62.53
2018-02-04T03:32:40.782Z,62.54
2018-02-04T03:33:04.355Z,62.54
2018-02-04T03:33:28.216Z,62.54
2018-02-04T03:33:51.747Z,62.52
2018-02-04T03:34:15.476Z,62.53
2018-02-04T03:34:39.235Z,62.53
2018-02-04T03:35:02.720Z,62.49
2018-02-04T03:35:26.464Z,62.41
2018-02-04T03:35:50.236Z,62.34
2018-02-04T03:36:14.253Z,62.32
2018-02-04T03:36:38.048Z,62.30
2018-02-04T03:37:01.590Z,62.26
2018-02-04T03:37:25.358Z,62.17
2018-02-04T03:37:49.258Z,62.15
2018-02-04T03:38:12.991Z,62.15
2018-02-04T03:38:37.084Z,62.16
2018-02-04T03:39:00.891Z,62.18
2018-02-04T03:39:24.955Z,62.15
2018-02-04T03:39:48.718Z,62.11
2018-02-04T03:40:12.169Z,62.08
2018-02-04T03:40:35.901Z,62.03
2018-02-04T03:40:59.649Z,62.00
2018-02-04T03:41:23.665Z,61.98
2018-02-04T03:41:47.731Z,61.91
2018-02-04T03:42:11.488Z,61.83
2018-02-04T03:42:34.947Z,61.76
2018-02-04T03:42:58.682Z,61.71
2018-02-04T03:43:22.427Z,61.66
2018-02-04T03:43:46.440Z,61.62
2018-02-04T03:44:10.477Z,61.51
2018-02-04T03:44:34.587Z,61.44
2018-02-04T03:44:58.320Z,61.41
2018-02-04T03:45:22.363Z,61.37
2018-02-04T03:45:46.110Z,61.29
2018-02-04T03:46:09.625Z,61.17
2018-02-04T03:46:33.347Z,61.07
2018-02-04T03:46:57.095Z,60.99
2018-02-04T03:47:21.155Z,60.88
2018-02-04T03:47:44.534Z,60.80
2018-02-04T03:48:08.332Z,60.64
2018-02-04T03:48:32.111Z,60.46
2018-02-04T03:48:55.887Z,60.34
2018-02-04T03:49:20.004Z,60.21
2018-02-04T03:49:43.760Z,60.08
2018-02-04T03:50:07.803Z,60.01
2018-02-04T03:50:31.822Z,59.90
2018-02-04T03:50:55.645Z,59.86
2018-02-04T03:51:19.696Z,59.78
2018-02-04T03:51:43.146Z,59.71
2018-02-04T03:52:06.887Z,59.70
2018-02-04T03:52:30.709Z,59.71
2018-02-04T03:52:54.491Z,59.65
2018-02-04T03:53:18.563Z,59.57
2018-02-04T03:53:42.324Z,59.54
2018-02-04T03:54:05.815Z,59.50
2018-02-04T03:54:29.564Z,59.41
2018-02-04T03:54:53.305Z,59.37
2018-02-04T03:55:17.331Z,59.33
2018-02-04T03:55:41.091Z,59.31
2018-02-04T03:56:04.583Z,59.22
2018-02-04T03:56:28.311Z,59.22
2018-02-04T03:56:52.063Z,59.14
2018-02-04T03:57:16.123Z,59.10
2018-02-04T03:57:40.122Z,59.09
2018-02-04T03:58:03.872Z,59.04
2018-02-04T03:58:27.432Z,59.05
2018-02-04T03:58:50.922Z,59.08
2018-02-04T03:59:14.948Z,59.07
2018-02-04T03:59:38.403Z,59.06
2018-02-04T04:00:02.220Z,58.99
2018-02-04T04:00:26.012Z,58.97
2018-02-04T04:00:49.059Z,58.94
2018-02-04T04:01:12.791Z,58.92
2018-02-04T04:01:36.573Z,58.90
2018-02-04T04:02:00.018Z,58.85
2018-02-04T04:02:23.890Z,58.81
2018-02-04T04:02:47.672Z,58.81
2018-02-04T04:03:11.319Z,58.81
2018-02-04T04:03:34.907Z,58.78
2018-02-04T04:03:58.663Z,58.75
2018-02-04T04:04:22.460Z,58.72
2018-02-04T04:04:45.985Z,58.70
2018-02-04T04:05:09.757Z,58.68
2018-02-04T04:05:33.486Z,58.69
2018-02-04T04:05:57.232Z,58.68
2018-02-04T04:06:21.306Z,58.67
2018-02-04T04:06:45.098Z,58.67
2018-02-04T04:07:08.644Z,58.68
2018-02-04T04:07:32.383Z,58.69
2018-02-04T04:07:56.127Z,58.70
2018-02-04T04:08:19.867Z,58.71
2018-02-04T04:08:42.628Z,58.74
2018-02-04T04:09:06.361Z,58.78
2018-02-04T04:09:29.814Z,58.82
2018-02-04T04:09:53.279Z,58.83
2018-02-04T04:10:16.383Z,58.85
2018-02-04T04:10:40.201Z,58.87
2018-02-04T04:11:03.956Z,58.88
2018-02-04T04:11:27.713Z,58.86
2018-02-04T04:11:51.758Z,58.91
2018-02-04T04:12:15.556Z,58.96
2018-02-04T04:12:39.711Z,58.91
2018-02-04T04:13:03.488Z,58.87
2018-02-04T04:13:27.576Z,58.87
2018-02-04T04:13:51.319Z,58.86
2018-02-04T04:14:14.830Z,58.84
2018-02-04T04:14:38.663Z,58.84
2018-02-04T04:15:01.782Z,58.81
2018-02-04T04:15:25.383Z,58.79
2018-02-04T04:15:49.161Z,58.79
2018-02-04T04:16:13.174Z,58.75
2018-02-04T04:16:37.252Z,58.75
2018-02-04T04:17:01.016Z,58.78
2018-02-04T04:17:25.089Z,58.85
2018-02-04T04:17:48.545Z,58.95
2018-02-04T04:18:12.358Z,59.00
2018-02-04T04:18:36.113Z,59.00
2018-02-04T04:18:59.855Z,59.02
2018-02-04T04:19:23.979Z,59.05
2018-02-04T04:19:47.727Z,59.08
2018-02-04T04:20:11.982Z,59.09
2018-02-04T04:20:35.762Z,59.02
2018-02-04T04:20:59.820Z,58.92
2018-02-04T04:21:23.563Z,58.86
2018-02-04T04:21:47.644Z,58.86
2018-02-04T04:22:11.734Z,58.87
2018-02-04T04:22:35.566Z,58.88
2018-02-04T04:22:59.663Z,58.88
2018-02-04T04:23:23.488Z,58.85
2018-02-04T04:23:47.562Z,58.82
2018-02-04T04:24:11.313Z,58.81
2018-02-04T04:24:35.339Z,58.78
2018-02-04T04:24:59.363Z,58.76
2018-02-04T04:25:23.127Z,58.76
2018-02-04T04:25:46.225Z,58.75
2018-02-04T04:26:10.399Z,58.69
2018-02-04T04:26:34.131Z,58.67
2018-02-04T04:26:58.164Z,58.67
2018-02-04T04:27:21.940Z,58.63
2018-02-04T04:27:45.426Z,58.56
2018-02-04T04:28:09.167Z,58.52
2018-02-04T04:28:32.943Z,58.49
2018-02-04T04:28:56.953Z,58.50
2018-02-04T04:29:20.691Z,58.53
2018-02-04T04:29:44.172Z,58.55
2018-02-04T04:30:07.935Z,58.57
2018-02-04T04:30:31.749Z,58.61
2018-02-04T04:30:55.789Z,58.60
2018-02-04T04:31:18.843Z,58.57
2018-02-04T04:31:42.638Z,58.58
2018-02-04T04:32:06.090Z,58.58
2018-02-04T04:32:29.833Z,58.54
2018-02-04T04:32:53.606Z,58.54
2018-02-04T04:33:17.357Z,58.55
2018-02-04T04:33:40.871Z,58.58
2018-02-04T04:34:04.614Z,58.57
2018-02-04T04:34:28.383Z,58.58
2018-02-04T04:34:51.423Z,58.53
2018-02-04T04:35:15.161Z,58.40
2018-02-04T04:35:39.197Z,58.30
2018-02-04T04:36:03.227Z,58.16
2018-02-04T04:36:26.969Z,57.91
2018-02-04T04:36:50.409Z,57.72
2018-02-04T04:37:14.187Z,57.66
2018-02-04T04:37:37.571Z,57.58
2018-02-04T04:38:01.333Z,57.49
2018-02-04T04:38:25.075Z,57.40
2018-02-04T04:38:48.830Z,57.28
2018-02-04T04:39:12.182Z,57.19
2018-02-04T04:39:35.982Z,57.13
2018-02-04T04:39:59.850Z,57.02
2018-02-04T04:40:23.599Z,56.88
2018-02-04T04:40:47.048Z,56.75
2018-02-04T04:41:10.805Z,56.69
2018-02-04T04:41:34.532Z,56.63
2018-02-04T04:41:58.558Z,56.56
2018-02-04T04:42:22.383Z,56.51
2018-02-04T04:42:46.440Z,56.45
2018-02-04T04:43:10.467Z,56.42
2018-02-04T04:43:33.505Z,56.36
2018-02-04T04:43:57.295Z,56.25
2018-02-04T04:44:21.304Z,56.22
2018-02-04T04:44:45.050Z,56.22
2018-02-04T04:45:08.535Z,56.23
2018-02-04T04:45:32.283Z,56.19
2018-02-04T04:45:56.052Z,56.20
2018-02-04T04:46:20.057Z,56.20
2018-02-04T04:46:44.126Z,56.23
2018-02-04T04:47:07.883Z,56.26
2018-02-04T04:47:31.907Z,56.31
2018-02-04T04:47:55.924Z,56.38
2018-02-04T04:48:19.662Z,56.44
2018-02-04T04:48:43.422Z,56.50
2018-02-04T04:49:07.166Z,56.54
2018-02-04T04:49:30.904Z,56.53
2018-02-04T04:49:54.642Z,56.52
2018-02-04T04:50:18.665Z,56.57
2018-02-04T04:50:42.399Z,56.62
2018-02-04T04:51:06.155Z,56.68
2018-02-04T04:51:29.898Z,56.71
2018-02-04T04:51:53.457Z,56.71
2018-02-04T04:52:17.224Z,56.72
2018-02-04T04:52:40.949Z,56.73
2018-02-04T04:53:04.351Z,56.76
2018-02-04T04:53:28.366Z,56.77
2018-02-04T04:53:52.119Z,56.83
2018-02-04T04:54:15.677Z,56.84
2018-02-04T04:54:39.455Z,56.84
2018-02-04T04:55:03.173Z,56.81
2018-02-04T04:55:26.896Z,56.84
2018-02-04T04:55:50.614Z,56.82
2018-02-04T04:56:14.336Z,56.84
2018-02-04T04:56:37.876Z,56.89
2018-02-04T04:57:01.767Z,56.94
2018-02-04T04:57:25.238Z,56.96
2018-02-04T04:57:48.995Z,56.99
2018-02-04T04:58:12.749Z,56.97
2018-02-04T04:58:36.781Z,56.92
2018-02-04T04:59:00.514Z,56.86
2018-02-04T04:59:24.304Z,56.87
2018-02-04T04:59:47.884Z,56.87
2018-02-04T05:00:11.431Z,56.86
2018-02-04T05:00:34.884Z,56.88
2018-02-04T05:00:58.639Z,56.88
2018-02-04T05:01:22.364Z,56.89
2018-02-04T05:01:46.390Z,56.89
2018-02-04T05:02:09.827Z,56.88
2018-02-04T05:02:33.269Z,56.80
2018-02-04T05:02:57.268Z,56.77
2018-02-04T05:03:20.550Z,56.76
2018-02-04T05:03:44.351Z,56.70
2018-02-04T05:04:08.084Z,56.71
2018-02-04T05:04:32.023Z,56.70
2018-02-04T05:04:56.105Z,56.67
2018-02-04T05:05:19.876Z,56.67
2018-02-04T05:05:43.900Z,56.68
2018-02-04T05:06:07.990Z,56.65
2018-02-04T05:06:31.787Z,56.60
2018-02-04T05:06:55.787Z,56.61
2018-02-04T05:07:19.807Z,56.64
2018-02-04T05:07:43.535Z,56.63
2018-02-04T05:08:07.063Z,56.63
2018-02-04T05:08:30.792Z,56.63
2018-02-04T05:08:54.524Z,56.62
2018-02-04T05:09:18.661Z,56.65
2018-02-04T05:09:42.419Z,56.69
2018-02-04T05:10:06.428Z,56.69
2018-02-04T05:10:30.470Z,56.71
2018-02-04T05:10:54.211Z,56.62
2018-02-04T05:11:17.651Z,56.59
2018-02-04T05:11:41.594Z,56.59
2018-02-04T05:12:05.368Z,56.60
2018-02-04T05:12:29.147Z,56.58
2018-02-04T05:12:53.164Z,56.58
2018-02-04T05:13:17.171Z,56.54
2018-02-04T05:13:40.938Z,56.51
2018-02-04T05:14:04.372Z,56.47
2018-02-04T05:14:28.157Z,56.48
2018-02-04T05:14:51.901Z,56.43
2018-02-04T05:15:15.916Z,56.38
2018-02-04T05:15:39.388Z,56.34
2018-02-04T05:16:03.100Z,56.27
2018-02-04T05:16:26.815Z,56.24
2018-02-04T05:16:50.584Z,56.20
2018-02-04T05:17:14.094Z,56.16
2018-02-04T05:17:37.863Z,56.07
2018-02-04T05:18:01.314Z,56.00
2018-02-04T05:18:25.088Z,55.97
2018-02-04T05:18:48.868Z,55.91
2018-02-04T05:19:12.615Z,55.81
2018-02-04T05:19:36.375Z,55.74
2018-02-04T05:20:00.119Z,55.73
2018-02-04T05:20:23.923Z,55.73
2018-02-04T05:20:47.724Z,55.68
2018-02-04T05:21:11.449Z,55.59
2018-02-04T05:21:35.219Z,55.49
2018-02-04T05:21:58.960Z,55.29
2018-02-04T05:22:22.677Z,55.08
2018-02-04T05:22:46.476Z,54.94
2018-02-04T05:23:10.247Z,54.91
2018-02-04T05:23:33.969Z,54.78
2018-02-04T05:23:58.066Z,54.63
2018-02-04T05:24:21.837Z,54.53
2018-02-04T05:24:45.875Z,54.39
2018-02-04T05:25:09.647Z,54.29
2018-02-04T05:25:33.114Z,54.19
2018-02-04T05:25:56.847Z,54.12
2018-02-04T05:26:20.404Z,54.04
2018-02-04T05:26:43.648Z,53.90
2018-02-04T05:27:07.655Z,53.82
2018-02-04T05:27:31.242Z,53.75
2018-02-04T05:27:54.957Z,53.69
2018-02-04T05:28:18.691Z,53.64
2018-02-04T05:28:42.436Z,53.61
2018-02-04T05:29:06.499Z,53.59
2018-02-04T05:29:29.581Z,53.46
2018-02-04T05:29:53.315Z,53.41
2018-02-04T05:30:17.387Z,53.37
2018-02-04T05:30:41.135Z,53.30
2018-02-04T05:31:04.566Z,53.26
2018-02-04T05:31:28.549Z,53.26
2018-02-04T05:31:52.308Z,53.22
2018-02-04T05:32:16.039Z,53.09
2018-02-04T05:32:40.154Z,53.03
2018-02-04T05:33:03.962Z,52.97
2018-02-04T05:33:28.025Z,52.93
2018-02-04T05:33:51.772Z,52.86
2018-02-04T05:34:15.207Z,52.73
2018-02-04T05:34:38.951Z,52.65
2018-02-04T05:35:01.987Z,52.63
2018-02-04T05:35:25.756Z,52.57
2018-02-04T05:35:49.543Z,52.56
2018-02-04T05:36:13.000Z,52.53
2018-02-04T05:36:36.732Z,52.54
2018-02-04T05:37:00.456Z,52.54
2018-02-04T05:37:24.554Z,52.46
2018-02-04T05:37:48.430Z,52.42
2018-02-04T05:38:12.496Z,52.42
2018-02-04T05:38:36.231Z,52.44
2018-02-04T05:38:59.423Z,52.49
2018-02-04T05:39:23.151Z,52.47
2018-02-04T05:39:46.610Z,52.38
2018-02-04T05:40:10.061Z,52.29
2018-02-04T05:40:33.522Z,52.24
2018-02-04T05:40:56.588Z,52.25
2018-02-04T05:41:20.303Z,52.30
2018-02-04T05:41:44.044Z,52.30
2018-02-04T05:42:07.800Z,52.27
2018-02-04T05:42:31.363Z,52.26
2018-02-04T05:42:55.150Z,52.28
2018-02-04T05:43:18.881Z,52.30
2018-02-04T05:43:42.175Z,52.31
2018-02-04T05:44:05.979Z,52.27
2018-02-04T05:44:29.425Z,52.23
2018-02-04T05:44:53.144Z,52.20
2018-02-04T05:45:16.879Z,52.24
2018-02-04T05:45:40.630Z,52.25
2018-02-04T05:46:04.672Z,52.22
2018-02-04T05:46:28.405Z,52.19
2018-02-04T05:46:52.266Z,52.17
2018-02-04T05:47:15.804Z,52.17
2018-02-04T05:47:39.527Z,52.23
2018-02-04T05:48:03.315Z,52.29
2018-02-04T05:48:27.139Z,52.27
2018-02-04T05:48:50.671Z,52.29
2018-02-04T05:49:14.199Z,52.32
2018-02-04T05:49:37.361Z,52.32